sensor_id;sensor_type;location;lat;lon;timestamp;P1;durP1;ratioP1;P2;durP2;ratioP2
43429;SDS011;29028;43.234;27.896;2022-12-15T14:35:22;9.30;;;7.47;;
43429;SDS011;29028;43.234;27.896;2022-12-15T14:35:49;14.35;;;8.80;;
43429;SDS011;29028;43.234;27.896;2022-12-15T14:36:14;14.93;;;9.35;;
43429;SDS011;29028;43.234;27.896;2022-12-15T14:36:37;14.55;;;9.77;;
43429;SDS011;29028;43.234;27.896;2022-12-15T14:37:02;14.73;;;10.10;;
43429;SDS011;29028;43.234;27.896;2022-12-15T14:37:27;12.93;;;9.68;;
43429;SDS011;29028;43.234;27.896;2022-12-15T14:37:48;13.95;;;9.25;;
43429;SDS011;29028;43.234;27.896;2022-12-15T14:38:11;14.75;;;9.40;;
43429;SDS011;29028;43.234;27.896;2022-12-15T14:38:38;16.02;;;10.18;;
43429;SDS011;29028;43.234;27.896;2022-12-15T14:39:04;16.55;;;10.20;;
43429;SDS011;29028;43.234;27.896;2022-12-15T14:39:32;14.10;;;9.88;;
43429;SDS011;29028;43.234;27.896;2022-12-15T14:39:57;14.02;;;10.00;;
43429;SDS011;29028;43.234;27.896;2022-12-15T14:40:18;14.30;;;9.77;;
43429;SDS011;29028;43.234;27.896;2022-12-15T14:40:39;14.20;;;9.60;;
43429;SDS011;29028;43.234;27.896;2022-12-15T14:41:02;14.63;;;9.43;;
43429;SDS011;29028;43.234;27.896;2022-12-15T14:41:25;13.52;;;9.25;;
43429;SDS011;29028;43.234;27.896;2022-12-15T14:41:48;16.10;;;9.73;;
43429;SDS011;29028;43.234;27.896;2022-12-15T14:42:14;13.98;;;10.05;;
43429;SDS011;29028;43.234;27.896;2022-12-15T14:42:37;14.48;;;9.95;;
43429;SDS011;29028;43.234;27.896;2022-12-15T14:42:58;16.60;;;9.70;;
43429;SDS011;29028;43.234;27.896;2022-12-15T14:43:21;17.77;;;10.13;;
43429;SDS011;29028;43.234;27.896;2022-12-15T14:43:44;18.15;;;10.25;;
43429;SDS011;29028;43.234;27.896;2022-12-15T14:44:05;14.95;;;10.23;;
43429;SDS011;29028;43.234;27.896;2022-12-15T14:44:36;14.48;;;9.98;;
43429;SDS011;29028;43.234;27.896;2022-12-15T14:44:58;13.27;;;10.02;;
43429;SDS011;29028;43.234;27.896;2022-12-15T14:45:20;13.98;;;11.00;;
43429;SDS011;29028;43.234;27.896;2022-12-15T14:45:44;12.27;;;9.95;;
43429;SDS011;29028;43.234;27.896;2022-12-15T14:46:10;11.05;;;9.43;;
43429;SDS011;29028;43.234;27.896;2022-12-15T14:46:36;11.10;;;9.45;;
43429;SDS011;29028;43.234;27.896;2022-12-15T14:46:59;11.15;;;9.85;;
43429;SDS011;29028;43.234;27.896;2022-12-15T14:47:23;12.48;;;10.10;;
43429;SDS011;29028;43.234;27.896;2022-12-15T14:47:49;13.05;;;9.63;;
43429;SDS011;29028;43.234;27.896;2022-12-15T14:48:13;16.38;;;10.27;;
43429;SDS011;29028;43.234;27.896;2022-12-15T14:48:50;13.60;;;10.40;;
43429;SDS011;29028;43.234;27.896;2022-12-15T14:49:17;14.15;;;10.13;;
43429;SDS011;29028;43.234;27.896;2022-12-15T14:49:41;13.63;;;10.07;;
43429;SDS011;29028;43.234;27.896;2022-12-15T14:50:04;15.52;;;10.48;;
43429;SDS011;29028;43.234;27.896;2022-12-15T14:50:33;13.55;;;10.30;;
43429;SDS011;29028;43.234;27.896;2022-12-15T14:50:57;12.52;;;9.68;;
43429;SDS011;29028;43.234;27.896;2022-12-15T14:51:20;13.68;;;9.93;;
43429;SDS011;29028;43.234;27.896;2022-12-15T14:51:44;13.75;;;10.02;;
43429;SDS011;29028;43.234;27.896;2022-12-15T14:52:13;16.42;;;10.88;;
43429;SDS011;29028;43.234;27.896;2022-12-15T14:52:45;14.57;;;9.93;;
43429;SDS011;29028;43.234;27.896;2022-12-15T14:53:10;11.55;;;9.50;;
43429;SDS011;29028;43.234;27.896;2022-12-15T14:53:35;17.02;;;10.32;;
43429;SDS011;29028;43.234;27.896;2022-12-15T14:53:59;14.35;;;10.05;;
43429;SDS011;29028;43.234;27.896;2022-12-15T14:54:27;12.82;;;9.57;;
43429;SDS011;29028;43.234;27.896;2022-12-15T14:54:52;15.05;;;10.30;;
43429;SDS011;29028;43.234;27.896;2022-12-15T14:55:23;13.95;;;10.10;;
43429;SDS011;29028;43.234;27.896;2022-12-15T14:55:49;15.48;;;9.63;;
43429;SDS011;29028;43.234;27.896;2022-12-15T14:56:12;16.92;;;9.73;;
43429;SDS011;29028;43.234;27.896;2022-12-15T14:56:45;17.48;;;10.52;;
43429;SDS011;29028;43.234;27.896;2022-12-15T14:57:20;15.65;;;10.50;;
43429;SDS011;29028;43.234;27.896;2022-12-15T14:57:44;15.05;;;10.55;;
43429;SDS011;29028;43.234;27.896;2022-12-15T14:58:20;14.32;;;10.15;;
43429;SDS011;29028;43.234;27.896;2022-12-15T14:58:46;15.40;;;10.25;;
43429;SDS011;29028;43.234;27.896;2022-12-15T14:59:16;13.02;;;10.02;;
43429;SDS011;29028;43.234;27.896;2022-12-15T14:59:39;12.00;;;9.30;;
43429;SDS011;29028;43.234;27.896;2022-12-15T15:00:09;11.40;;;9.30;;
43429;SDS011;29028;43.234;27.896;2022-12-15T15:00:47;12.07;;;9.13;;
43429;SDS011;29028;43.234;27.896;2022-12-15T15:01:20;12.45;;;9.02;;
43429;SDS011;29028;43.234;27.896;2022-12-15T15:01:49;12.15;;;9.48;;
43429;SDS011;29028;43.234;27.896;2022-12-15T15:02:16;14.15;;;9.23;;
43429;SDS011;29028;43.234;27.896;2022-12-15T15:02:41;15.27;;;9.68;;
43429;SDS011;29028;43.234;27.896;2022-12-15T15:03:16;14.02;;;9.50;;
43429;SDS011;29028;43.234;27.896;2022-12-15T15:03:41;14.20;;;10.02;;
43429;SDS011;29028;43.234;27.896;2022-12-15T15:04:02;14.25;;;9.90;;
43429;SDS011;29028;43.234;27.896;2022-12-15T15:04:28;12.93;;;10.38;;
43429;SDS011;29028;43.234;27.896;2022-12-15T15:04:53;12.85;;;10.82;;
43429;SDS011;29028;43.234;27.896;2022-12-15T15:05:24;12.18;;;10.20;;
43429;SDS011;29028;43.234;27.896;2022-12-15T15:05:50;13.20;;;10.05;;
43429;SDS011;29028;43.234;27.896;2022-12-15T15:06:15;13.30;;;10.43;;
43429;SDS011;29028;43.234;27.896;2022-12-15T15:06:38;13.73;;;11.18;;
43429;SDS011;29028;43.234;27.896;2022-12-15T15:07:01;13.57;;;10.48;;
43429;SDS011;29028;43.234;27.896;2022-12-15T15:07:24;16.40;;;11.05;;
43429;SDS011;29028;43.234;27.896;2022-12-15T15:07:48;17.02;;;11.38;;
43429;SDS011;29028;43.234;27.896;2022-12-15T15:08:23;15.35;;;11.63;;
43429;SDS011;29028;43.234;27.896;2022-12-15T15:08:48;14.35;;;11.55;;
43429;SDS011;29028;43.234;27.896;2022-12-15T15:09:18;13.65;;;10.80;;
43429;SDS011;29028;43.234;27.896;2022-12-15T15:09:44;16.27;;;11.15;;
43429;SDS011;29028;43.234;27.896;2022-12-15T15:10:15;15.20;;;11.07;;
43429;SDS011;29028;43.234;27.896;2022-12-15T15:10:42;14.45;;;11.05;;
43429;SDS011;29028;43.234;27.896;2022-12-15T15:11:20;14.98;;;10.90;;
43429;SDS011;29028;43.234;27.896;2022-12-15T15:11:46;13.82;;;10.98;;
43429;SDS011;29028;43.234;27.896;2022-12-15T15:12:15;15.25;;;11.38;;
43429;SDS011;29028;43.234;27.896;2022-12-15T15:12:39;15.48;;;11.00;;
43429;SDS011;29028;43.234;27.896;2022-12-15T15:13:03;15.35;;;12.13;;
43429;SDS011;29028;43.234;27.896;2022-12-15T15:13:26;14.45;;;11.48;;
43429;SDS011;29028;43.234;27.896;2022-12-15T15:13:55;16.63;;;11.93;;
43429;SDS011;29028;43.234;27.896;2022-12-15T15:14:19;15.77;;;11.77;;
43429;SDS011;29028;43.234;27.896;2022-12-15T15:14:45;16.75;;;11.70;;
43429;SDS011;29028;43.234;27.896;2022-12-15T15:15:10;16.67;;;11.80;;
43429;SDS011;29028;43.234;27.896;2022-12-15T15:15:35;15.45;;;12.35;;
43429;SDS011;29028;43.234;27.896;2022-12-15T15:15:59;16.63;;;12.85;;
43429;SDS011;29028;43.234;27.896;2022-12-15T15:16:23;17.48;;;12.45;;
43429;SDS011;29028;43.234;27.896;2022-12-15T15:16:44;18.60;;;12.45;;
43429;SDS011;29028;43.234;27.896;2022-12-15T15:17:22;15.00;;;11.65;;
43429;SDS011;29028;43.234;27.896;2022-12-15T15:17:46;14.73;;;12.30;;
43429;SDS011;29028;43.234;27.896;2022-12-15T15:18:12;20.77;;;12.90;;
43429;SDS011;29028;43.234;27.896;2022-12-15T15:18:34;19.98;;;13.02;;
43429;SDS011;29028;43.234;27.896;2022-12-15T15:18:55;18.33;;;12.97;;
43429;SDS011;29028;43.234;27.896;2022-12-15T15:19:20;18.48;;;12.82;;
43429;SDS011;29028;43.234;27.896;2022-12-15T15:19:44;17.48;;;13.27;;
43429;SDS011;29028;43.234;27.896;2022-12-15T15:20:14;19.57;;;13.30;;
43429;SDS011;29028;43.234;27.896;2022-12-15T15:20:53;19.52;;;14.30;;
43429;SDS011;29028;43.234;27.896;2022-12-15T15:21:19;18.48;;;14.55;;
43429;SDS011;29028;43.234;27.896;2022-12-15T15:21:44;18.10;;;14.73;;
43429;SDS011;29028;43.234;27.896;2022-12-15T15:22:11;19.33;;;13.60;;
43429;SDS011;29028;43.234;27.896;2022-12-15T15:22:45;22.88;;;14.20;;
43429;SDS011;29028;43.234;27.896;2022-12-15T15:23:21;21.05;;;13.88;;
43429;SDS011;29028;43.234;27.896;2022-12-15T15:23:55;18.85;;;14.13;;
43429;SDS011;29028;43.234;27.896;2022-12-15T15:24:20;18.50;;;13.65;;
43429;SDS011;29028;43.234;27.896;2022-12-15T15:24:49;21.40;;;14.65;;
43429;SDS011;29028;43.234;27.896;2022-12-15T15:25:27;19.20;;;14.32;;
43429;SDS011;29028;43.234;27.896;2022-12-15T15:25:54;18.50;;;13.23;;
43429;SDS011;29028;43.234;27.896;2022-12-15T15:26:16;16.10;;;12.57;;
43429;SDS011;29028;43.234;27.896;2022-12-15T15:26:37;15.80;;;12.63;;
43429;SDS011;29028;43.234;27.896;2022-12-15T15:27:48;17.27;;;13.05;;
43429;SDS011;29028;43.234;27.896;2022-12-15T15:28:14;16.45;;;12.80;;
43429;SDS011;29028;43.234;27.896;2022-12-15T15:28:41;18.35;;;13.63;;
43429;SDS011;29028;43.234;27.896;2022-12-15T15:30:05;15.68;;;12.68;;
43429;SDS011;29028;43.234;27.896;2022-12-15T15:30:38;15.75;;;12.07;;
43429;SDS011;29028;43.234;27.896;2022-12-15T15:31:17;23.05;;;12.80;;
43429;SDS011;29028;43.234;27.896;2022-12-15T15:31:46;18.50;;;12.57;;
43429;SDS011;29028;43.234;27.896;2022-12-15T15:32:13;16.10;;;12.02;;
43429;SDS011;29028;43.234;27.896;2022-12-15T15:32:47;18.85;;;12.18;;
43429;SDS011;29028;43.234;27.896;2022-12-15T15:33:09;14.57;;;11.90;;
43429;SDS011;29028;43.234;27.896;2022-12-15T15:33:32;15.80;;;11.70;;
43429;SDS011;29028;43.234;27.896;2022-12-15T15:33:53;15.73;;;11.10;;
43429;SDS011;29028;43.234;27.896;2022-12-15T15:34:16;16.23;;;11.30;;
43429;SDS011;29028;43.234;27.896;2022-12-15T15:34:38;15.35;;;11.75;;
43429;SDS011;29028;43.234;27.896;2022-12-15T15:34:59;15.48;;;11.82;;
43429;SDS011;29028;43.234;27.896;2022-12-15T15:35:20;17.10;;;12.13;;
43429;SDS011;29028;43.234;27.896;2022-12-15T15:35:44;16.88;;;12.27;;
43429;SDS011;29028;43.234;27.896;2022-12-15T15:36:09;16.40;;;12.23;;
43429;SDS011;29028;43.234;27.896;2022-12-15T15:36:31;17.40;;;12.40;;
43429;SDS011;29028;43.234;27.896;2022-12-15T15:36:55;18.05;;;12.57;;
43429;SDS011;29028;43.234;27.896;2022-12-15T15:37:16;17.50;;;12.05;;
43429;SDS011;29028;43.234;27.896;2022-12-15T15:37:39;15.52;;;11.88;;
43429;SDS011;29028;43.234;27.896;2022-12-15T15:38:03;14.85;;;11.82;;
43429;SDS011;29028;43.234;27.896;2022-12-15T15:38:27;16.05;;;12.10;;
43429;SDS011;29028;43.234;27.896;2022-12-15T15:38:51;16.35;;;12.40;;
43429;SDS011;29028;43.234;27.896;2022-12-15T15:39:13;17.70;;;11.90;;
43429;SDS011;29028;43.234;27.896;2022-12-15T15:39:35;17.60;;;11.65;;
43429;SDS011;29028;43.234;27.896;2022-12-15T15:39:56;16.33;;;11.30;;
43429;SDS011;29028;43.234;27.896;2022-12-15T15:40:17;15.40;;;11.37;;
43429;SDS011;29028;43.234;27.896;2022-12-15T15:40:38;14.87;;;11.77;;
43429;SDS011;29028;43.234;27.896;2022-12-15T15:41:00;15.77;;;11.73;;
43429;SDS011;29028;43.234;27.896;2022-12-15T15:41:31;15.63;;;10.98;;
43429;SDS011;29028;43.234;27.896;2022-12-15T15:41:54;16.67;;;11.75;;
43429;SDS011;29028;43.234;27.896;2022-12-15T15:42:14;13.32;;;10.02;;
43429;SDS011;29028;43.234;27.896;2022-12-15T15:42:35;11.77;;;8.40;;
43429;SDS011;29028;43.234;27.896;2022-12-15T15:42:57;10.35;;;9.25;;
43429;SDS011;29028;43.234;27.896;2022-12-15T15:43:19;16.83;;;13.30;;
43429;SDS011;29028;43.234;27.896;2022-12-15T15:43:40;18.17;;;14.05;;
43429;SDS011;29028;43.234;27.896;2022-12-15T15:44:05;15.82;;;13.55;;
43429;SDS011;29028;43.234;27.896;2022-12-15T15:44:31;13.80;;;11.38;;
43429;SDS011;29028;43.234;27.896;2022-12-15T15:44:52;12.70;;;11.32;;
43429;SDS011;29028;43.234;27.896;2022-12-15T15:45:14;15.73;;;13.15;;
43429;SDS011;29028;43.234;27.896;2022-12-15T15:45:35;15.75;;;12.73;;
43429;SDS011;29028;43.234;27.896;2022-12-15T15:45:57;14.43;;;11.30;;
43429;SDS011;29028;43.234;27.896;2022-12-15T15:46:21;13.90;;;10.35;;
43429;SDS011;29028;43.234;27.896;2022-12-15T15:46:45;12.27;;;9.82;;
43429;SDS011;29028;43.234;27.896;2022-12-15T15:47:13;11.15;;;8.88;;
43429;SDS011;29028;43.234;27.896;2022-12-15T15:47:41;12.90;;;9.25;;
43429;SDS011;29028;43.234;27.896;2022-12-15T15:48:07;14.85;;;9.43;;
43429;SDS011;29028;43.234;27.896;2022-12-15T15:48:34;17.08;;;9.73;;
43429;SDS011;29028;43.234;27.896;2022-12-15T15:49:00;14.82;;;10.23;;
43429;SDS011;29028;43.234;27.896;2022-12-15T15:49:24;17.73;;;10.82;;
43429;SDS011;29028;43.234;27.896;2022-12-15T15:49:45;15.52;;;10.65;;
43429;SDS011;29028;43.234;27.896;2022-12-15T15:50:10;13.90;;;10.35;;
43429;SDS011;29028;43.234;27.896;2022-12-15T15:50:33;16.02;;;10.35;;
43429;SDS011;29028;43.234;27.896;2022-12-15T15:50:54;14.75;;;10.68;;
43429;SDS011;29028;43.234;27.896;2022-12-15T15:51:18;16.13;;;10.60;;
43429;SDS011;29028;43.234;27.896;2022-12-15T15:51:39;18.63;;;11.23;;
43429;SDS011;29028;43.234;27.896;2022-12-15T15:52:00;14.00;;;9.48;;
43429;SDS011;29028;43.234;27.896;2022-12-15T15:52:22;13.05;;;9.52;;
43429;SDS011;29028;43.234;27.896;2022-12-15T15:52:43;12.80;;;9.70;;
43429;SDS011;29028;43.234;27.896;2022-12-15T15:53:04;14.75;;;10.27;;
43429;SDS011;29028;43.234;27.896;2022-12-15T15:53:28;14.38;;;10.63;;
43429;SDS011;29028;43.234;27.896;2022-12-15T15:53:51;19.33;;;11.15;;
43429;SDS011;29028;43.234;27.896;2022-12-15T15:54:15;16.65;;;11.43;;
43429;SDS011;29028;43.234;27.896;2022-12-15T15:54:41;16.70;;;11.25;;
43429;SDS011;29028;43.234;27.896;2022-12-15T15:55:04;16.67;;;12.05;;
43429;SDS011;29028;43.234;27.896;2022-12-15T15:55:27;15.02;;;11.98;;
43429;SDS011;29028;43.234;27.896;2022-12-15T15:55:51;16.15;;;10.77;;
43429;SDS011;29028;43.234;27.896;2022-12-15T15:56:15;12.82;;;9.80;;
43429;SDS011;29028;43.234;27.896;2022-12-15T15:56:36;12.88;;;10.45;;
43429;SDS011;29028;43.234;27.896;2022-12-15T15:56:58;13.57;;;9.85;;
43429;SDS011;29028;43.234;27.896;2022-12-15T15:57:19;12.80;;;10.38;;
43429;SDS011;29028;43.234;27.896;2022-12-15T15:57:40;11.80;;;10.50;;
43429;SDS011;29028;43.234;27.896;2022-12-15T15:58:04;12.20;;;10.60;;
43429;SDS011;29028;43.234;27.896;2022-12-15T15:58:30;13.55;;;10.35;;
43429;SDS011;29028;43.234;27.896;2022-12-15T15:58:51;10.82;;;9.68;;
43429;SDS011;29028;43.234;27.896;2022-12-15T15:59:13;12.40;;;10.05;;
43429;SDS011;29028;43.234;27.896;2022-12-15T15:59:35;12.80;;;9.90;;
43429;SDS011;29028;43.234;27.896;2022-12-15T16:00:01;13.10;;;10.55;;
43429;SDS011;29028;43.234;27.896;2022-12-15T16:00:36;14.90;;;11.18;;
43429;SDS011;29028;43.234;27.896;2022-12-15T16:00:57;15.57;;;11.15;;
43429;SDS011;29028;43.234;27.896;2022-12-15T16:01:18;14.38;;;11.18;;
43429;SDS011;29028;43.234;27.896;2022-12-15T16:01:39;13.10;;;11.02;;
43429;SDS011;29028;43.234;27.896;2022-12-15T16:02:00;12.50;;;10.48;;
43429;SDS011;29028;43.234;27.896;2022-12-15T16:02:21;12.10;;;10.43;;
43429;SDS011;29028;43.234;27.896;2022-12-15T16:02:43;14.57;;;10.60;;
43429;SDS011;29028;43.234;27.896;2022-12-15T16:03:06;13.53;;;11.03;;
43429;SDS011;29028;43.234;27.896;2022-12-15T16:03:29;14.32;;;10.48;;
43429;SDS011;29028;43.234;27.896;2022-12-15T16:03:51;13.90;;;10.10;;
43429;SDS011;29028;43.234;27.896;2022-12-15T16:04:12;16.60;;;11.18;;
43429;SDS011;29028;43.234;27.896;2022-12-15T16:04:32;16.37;;;11.60;;
43429;SDS011;29028;43.234;27.896;2022-12-15T16:04:56;16.73;;;12.07;;
43429;SDS011;29028;43.234;27.896;2022-12-15T16:05:17;15.00;;;10.68;;
43429;SDS011;29028;43.234;27.896;2022-12-15T16:05:40;12.77;;;10.82;;
43429;SDS011;29028;43.234;27.896;2022-12-15T16:06:01;15.00;;;11.93;;
43429;SDS011;29028;43.234;27.896;2022-12-15T16:06:26;20.05;;;12.27;;
43429;SDS011;29028;43.234;27.896;2022-12-15T16:06:47;22.98;;;13.27;;
43429;SDS011;29028;43.234;27.896;2022-12-15T16:07:14;18.70;;;12.90;;
43429;SDS011;29028;43.234;27.896;2022-12-15T16:07:40;16.98;;;11.85;;
43429;SDS011;29028;43.234;27.896;2022-12-15T16:08:02;16.48;;;11.85;;
43429;SDS011;29028;43.234;27.896;2022-12-15T16:08:25;18.48;;;12.07;;
43429;SDS011;29028;43.234;27.896;2022-12-15T16:08:49;18.30;;;12.63;;
43429;SDS011;29028;43.234;27.896;2022-12-15T16:09:13;15.48;;;11.98;;
43429;SDS011;29028;43.234;27.896;2022-12-15T16:09:35;19.05;;;13.40;;
43429;SDS011;29028;43.234;27.896;2022-12-15T16:09:56;17.75;;;13.15;;
43429;SDS011;29028;43.234;27.896;2022-12-15T16:10:18;16.20;;;11.80;;
43429;SDS011;29028;43.234;27.896;2022-12-15T16:10:40;14.57;;;12.35;;
43429;SDS011;29028;43.234;27.896;2022-12-15T16:11:02;15.57;;;12.40;;
43429;SDS011;29028;43.234;27.896;2022-12-15T16:11:26;19.40;;;12.90;;
43429;SDS011;29028;43.234;27.896;2022-12-15T16:11:49;18.75;;;13.05;;
43429;SDS011;29028;43.234;27.896;2022-12-15T16:12:12;17.95;;;13.18;;
43429;SDS011;29028;43.234;27.896;2022-12-15T16:12:47;19.17;;;13.60;;
43429;SDS011;29028;43.234;27.896;2022-12-15T16:13:09;16.15;;;13.50;;
43429;SDS011;29028;43.234;27.896;2022-12-15T16:13:30;14.05;;;12.50;;
43429;SDS011;29028;43.234;27.896;2022-12-15T16:13:52;14.20;;;11.68;;
43429;SDS011;29028;43.234;27.896;2022-12-15T16:14:15;16.40;;;11.88;;
43429;SDS011;29028;43.234;27.896;2022-12-15T16:14:37;15.57;;;11.90;;
43429;SDS011;29028;43.234;27.896;2022-12-15T16:14:57;15.60;;;11.47;;
43429;SDS011;29028;43.234;27.896;2022-12-15T16:15:20;15.60;;;11.15;;
43429;SDS011;29028;43.234;27.896;2022-12-15T16:15:42;14.23;;;11.60;;
43429;SDS011;29028;43.234;27.896;2022-12-15T16:16:04;15.57;;;11.93;;
43429;SDS011;29028;43.234;27.896;2022-12-15T16:16:27;14.55;;;11.32;;
43429;SDS011;29028;43.234;27.896;2022-12-15T16:16:51;14.23;;;11.75;;
43429;SDS011;29028;43.234;27.896;2022-12-15T16:17:13;17.25;;;11.60;;
43429;SDS011;29028;43.234;27.896;2022-12-15T16:17:36;15.10;;;12.00;;
43429;SDS011;29028;43.234;27.896;2022-12-15T16:17:58;14.63;;;12.02;;
43429;SDS011;29028;43.234;27.896;2022-12-15T16:18:19;15.23;;;12.50;;
43429;SDS011;29028;43.234;27.896;2022-12-15T16:18:41;15.60;;;12.85;;
43429;SDS011;29028;43.234;27.896;2022-12-15T16:19:02;16.50;;;12.40;;
43429;SDS011;29028;43.234;27.896;2022-12-15T16:19:23;14.13;;;12.20;;
43429;SDS011;29028;43.234;27.896;2022-12-15T16:19:47;17.52;;;12.65;;
43429;SDS011;29028;43.234;27.896;2022-12-15T16:20:10;15.25;;;12.48;;
43429;SDS011;29028;43.234;27.896;2022-12-15T16:20:32;17.73;;;13.60;;
43429;SDS011;29028;43.234;27.896;2022-12-15T16:20:55;21.30;;;13.68;;
43429;SDS011;29028;43.234;27.896;2022-12-15T16:21:17;19.85;;;13.75;;
43429;SDS011;29028;43.234;27.896;2022-12-15T16:21:40;20.95;;;13.45;;
43429;SDS011;29028;43.234;27.896;2022-12-15T16:22:02;20.55;;;13.40;;
43429;SDS011;29028;43.234;27.896;2022-12-15T16:22:24;17.67;;;13.73;;
43429;SDS011;29028;43.234;27.896;2022-12-15T16:22:45;17.48;;;13.45;;
43429;SDS011;29028;43.234;27.896;2022-12-15T16:23:10;17.60;;;12.68;;
43429;SDS011;29028;43.234;27.896;2022-12-15T16:23:34;18.00;;;12.60;;
43429;SDS011;29028;43.234;27.896;2022-12-15T16:23:56;15.73;;;12.02;;
43429;SDS011;29028;43.234;27.896;2022-12-15T16:24:18;14.45;;;12.15;;
43429;SDS011;29028;43.234;27.896;2022-12-15T16:24:40;15.68;;;12.18;;
43429;SDS011;29028;43.234;27.896;2022-12-15T16:25:01;18.75;;;13.23;;
43429;SDS011;29028;43.234;27.896;2022-12-15T16:25:24;17.15;;;14.05;;
43429;SDS011;29028;43.234;27.896;2022-12-15T16:25:49;15.52;;;12.98;;
43429;SDS011;29028;43.234;27.896;2022-12-15T16:26:12;15.70;;;12.75;;
43429;SDS011;29028;43.234;27.896;2022-12-15T16:26:36;16.48;;;13.02;;
43429;SDS011;29028;43.234;27.896;2022-12-15T16:26:58;18.92;;;13.55;;
43429;SDS011;29028;43.234;27.896;2022-12-15T16:27:19;20.95;;;12.82;;
43429;SDS011;29028;43.234;27.896;2022-12-15T16:27:40;20.83;;;13.83;;
43429;SDS011;29028;43.234;27.896;2022-12-15T16:28:01;17.25;;;13.88;;
43429;SDS011;29028;43.234;27.896;2022-12-15T16:28:23;20.10;;;13.82;;
43429;SDS011;29028;43.234;27.896;2022-12-15T16:28:45;21.05;;;14.05;;
43429;SDS011;29028;43.234;27.896;2022-12-15T16:29:09;22.48;;;14.60;;
43429;SDS011;29028;43.234;27.896;2022-12-15T16:29:33;19.40;;;14.10;;
43429;SDS011;29028;43.234;27.896;2022-12-15T16:29:56;21.50;;;14.82;;
43429;SDS011;29028;43.234;27.896;2022-12-15T16:30:18;18.95;;;14.88;;
43429;SDS011;29028;43.234;27.896;2022-12-15T16:30:40;20.83;;;14.57;;
43429;SDS011;29028;43.234;27.896;2022-12-15T16:31:03;22.08;;;14.93;;
43429;SDS011;29028;43.234;27.896;2022-12-15T16:31:26;21.63;;;15.30;;
43429;SDS011;29028;43.234;27.896;2022-12-15T16:31:48;19.15;;;14.73;;
43429;SDS011;29028;43.234;27.896;2022-12-15T16:32:10;22.25;;;15.25;;
43429;SDS011;29028;43.234;27.896;2022-12-15T16:32:31;18.75;;;15.20;;
43429;SDS011;29028;43.234;27.896;2022-12-15T16:32:52;18.75;;;15.27;;
43429;SDS011;29028;43.234;27.896;2022-12-15T16:33:15;21.88;;;15.95;;
43429;SDS011;29028;43.234;27.896;2022-12-15T16:33:36;22.92;;;15.98;;
43429;SDS011;29028;43.234;27.896;2022-12-15T16:33:57;23.38;;;15.90;;
43429;SDS011;29028;43.234;27.896;2022-12-15T16:34:18;23.10;;;15.93;;
43429;SDS011;29028;43.234;27.896;2022-12-15T16:34:40;25.10;;;16.15;;
43429;SDS011;29028;43.234;27.896;2022-12-15T16:35:01;22.42;;;16.80;;
43429;SDS011;29028;43.234;27.896;2022-12-15T16:35:23;22.17;;;16.83;;
43429;SDS011;29028;43.234;27.896;2022-12-15T16:35:46;22.38;;;15.75;;
43429;SDS011;29028;43.234;27.896;2022-12-15T16:36:10;22.60;;;15.80;;
43429;SDS011;29028;43.234;27.896;2022-12-15T16:36:32;24.08;;;16.33;;
43429;SDS011;29028;43.234;27.896;2022-12-15T16:36:55;24.95;;;16.05;;
43429;SDS011;29028;43.234;27.896;2022-12-15T16:37:19;23.10;;;15.60;;
43429;SDS011;29028;43.234;27.896;2022-12-15T16:37:44;21.42;;;16.70;;
43429;SDS011;29028;43.234;27.896;2022-12-15T16:38:12;24.27;;;17.30;;
43429;SDS011;29028;43.234;27.896;2022-12-15T16:38:36;24.58;;;18.83;;
43429;SDS011;29028;43.234;27.896;2022-12-15T16:38:57;29.67;;;22.05;;
43429;SDS011;29028;43.234;27.896;2022-12-15T16:39:22;28.65;;;21.08;;
43429;SDS011;29028;43.234;27.896;2022-12-15T16:39:45;27.67;;;18.65;;
43429;SDS011;29028;43.234;27.896;2022-12-15T16:40:12;24.70;;;18.02;;
43429;SDS011;29028;43.234;27.896;2022-12-15T16:40:36;27.98;;;20.42;;
43429;SDS011;29028;43.234;27.896;2022-12-15T16:40:57;30.23;;;20.75;;
43429;SDS011;29028;43.234;27.896;2022-12-15T16:41:26;29.55;;;20.85;;
43429;SDS011;29028;43.234;27.896;2022-12-15T16:41:46;30.80;;;21.10;;
43429;SDS011;29028;43.234;27.896;2022-12-15T16:42:07;33.10;;;21.77;;
43429;SDS011;29028;43.234;27.896;2022-12-15T16:42:31;34.60;;;22.45;;
43429;SDS011;29028;43.234;27.896;2022-12-15T16:42:53;32.10;;;21.70;;
43429;SDS011;29028;43.234;27.896;2022-12-15T16:43:16;33.53;;;21.98;;
43429;SDS011;29028;43.234;27.896;2022-12-15T16:43:38;29.00;;;21.98;;
43429;SDS011;29028;43.234;27.896;2022-12-15T16:44:00;28.75;;;21.15;;
43429;SDS011;29028;43.234;27.896;2022-12-15T16:44:21;29.05;;;20.63;;
43429;SDS011;29028;43.234;27.896;2022-12-15T16:44:43;27.77;;;20.20;;
43429;SDS011;29028;43.234;27.896;2022-12-15T16:45:11;30.00;;;20.77;;
43429;SDS011;29028;43.234;27.896;2022-12-15T16:45:35;28.55;;;20.85;;
43429;SDS011;29028;43.234;27.896;2022-12-15T16:45:56;29.48;;;20.08;;
43429;SDS011;29028;43.234;27.896;2022-12-15T16:46:18;28.85;;;20.13;;
43429;SDS011;29028;43.234;27.896;2022-12-15T16:46:39;26.13;;;20.38;;
43429;SDS011;29028;43.234;27.896;2022-12-15T16:47:00;25.50;;;20.08;;
43429;SDS011;29028;43.234;27.896;2022-12-15T16:47:21;27.50;;;20.38;;
43429;SDS011;29028;43.234;27.896;2022-12-15T16:47:43;31.38;;;21.27;;
43429;SDS011;29028;43.234;27.896;2022-12-15T16:48:04;31.75;;;21.23;;
43429;SDS011;29028;43.234;27.896;2022-12-15T16:48:26;28.48;;;20.38;;
43429;SDS011;29028;43.234;27.896;2022-12-15T16:48:46;26.83;;;20.58;;
43429;SDS011;29028;43.234;27.896;2022-12-15T16:49:07;27.33;;;20.45;;
43429;SDS011;29028;43.234;27.896;2022-12-15T16:49:28;29.23;;;20.33;;
43429;SDS011;29028;43.234;27.896;2022-12-15T16:49:50;28.33;;;21.20;;
43429;SDS011;29028;43.234;27.896;2022-12-15T16:50:11;27.52;;;20.45;;
43429;SDS011;29028;43.234;27.896;2022-12-15T16:50:34;28.00;;;20.27;;
43429;SDS011;29028;43.234;27.896;2022-12-15T16:50:58;29.85;;;20.63;;
43429;SDS011;29028;43.234;27.896;2022-12-15T16:51:23;27.80;;;20.80;;
43429;SDS011;29028;43.234;27.896;2022-12-15T16:52:00;28.90;;;21.52;;
43429;SDS011;29028;43.234;27.896;2022-12-15T16:52:21;28.15;;;21.42;;
43429;SDS011;29028;43.234;27.896;2022-12-15T16:52:42;26.77;;;21.10;;
43429;SDS011;29028;43.234;27.896;2022-12-15T16:53:06;31.08;;;21.45;;
43429;SDS011;29028;43.234;27.896;2022-12-15T16:53:35;30.08;;;22.52;;
43429;SDS011;29028;43.234;27.896;2022-12-15T16:53:58;29.27;;;22.70;;
43429;SDS011;29028;43.234;27.896;2022-12-15T16:54:21;29.65;;;21.98;;
43429;SDS011;29028;43.234;27.896;2022-12-15T16:54:44;31.75;;;20.65;;
43429;SDS011;29028;43.234;27.896;2022-12-15T16:55:09;31.85;;;21.50;;
43429;SDS011;29028;43.234;27.896;2022-12-15T16:55:39;29.52;;;20.65;;
43429;SDS011;29028;43.234;27.896;2022-12-15T16:56:02;27.15;;;21.00;;
43429;SDS011;29028;43.234;27.896;2022-12-15T16:56:25;29.15;;;20.50;;
43429;SDS011;29028;43.234;27.896;2022-12-15T16:56:46;28.23;;;21.60;;
43429;SDS011;29028;43.234;27.896;2022-12-15T16:57:08;29.88;;;21.35;;